Aviation Digital Data Service (ADDS)

Output produced by METARs form (1824 UTC 25 August 2016)
found at http://www.aviationweather.gov/adds/metars/
 
KFIG 251754Z AUTO 25009KT 10SM BKN033 29/21 A3007 RMK AO2 SLP172 T02940206 10294 20194 56004
KFIG 251654Z AUTO 22007KT 10SM FEW026 SCT042 28/21 A3007 RMK AO2 SLP172 T02830211
KFIG 251554Z AUTO 25009KT 10SM SCT025 OVC036 27/22 A3008 RMK AO2 SLP175 T02720217
KFIG 251454Z AUTO 23006KT 10SM BKN021 OVC027 25/22 A3008 RMK AO2 SLP177 T02500222 51002
KFIG 251354Z AUTO 21007KT 10SM BKN017 OVC025 22/21 A3008 RMK AO2 SLP177 T02220206
KFIG 251332Z AUTO 20007KT 10SM BKN020 BKN025 OVC045 22/21 A3008 RMK AO2 T02170206
KFIG 251319Z AUTO 20006KT 10SM SCT019 BKN044 OVC060 22/20 A3008 RMK AO2 T02170200
KFIG 251254Z AUTO 21005KT 10SM BKN018 OVC025 21/19 A3008 RMK AO2 SLP177 T02060194
KFIG 251154Z AUTO 00000KT 10SM OVC021 19/19 A3008 RMK AO2 RAE09 SLP175 P0000 60000 T01940194 10194 20172 53002
KFIG 251140Z AUTO 00000KT 9SM BKN023 BKN029 19/19 A3007 RMK AO2 RAE09 P0000 T01940189
KFIG 251109Z AUTO 35003KT 10SM SCT025 BKN033 BKN048 19/19 A3007 RMK AO2 RAE09 P0000 T01890189
KFIG 251054Z AUTO 00000KT 10SM -RA BKN027 OVC046 19/18 A3007 RMK AO2 RAB0956 SLP172 P0000 T01890183
KFIG 251050Z AUTO 00000KT 10SM -RA BKN027 19/18 A3007 RMK AO2 RAB0956 P0000
KFIG 250954Z AUTO 35003KT 10SM FEW036 SCT050 SCT065 19/18 A3007 RMK AO2 SLP171 T01890183
KFIG 250854Z AUTO 36003KT 10SM FEW038 SCT050 18/17 A3008 RMK AO2 SLP174 T01780172 58013
KFIG 250754Z AUTO 35003KT 10SM FEW048 17/17 A3010 RMK AO2 SLP182 T01720172
KFIG 250654Z AUTO 00000KT 10SM CLR 18/17 A3010 RMK AO2 SLP183 T01780167
KFIG 250554Z AUTO 00000KT 10SM CLR 18/17 A3012 RMK AO2 SLP188 T01830167 10244 20172 58012
KFIG 250454Z AUTO 34003KT 10SM CLR 18/17 A3013 RMK AO2 SLP193 T01780167 403060117
KFIG 250354Z AUTO 34004KT 10SM CLR 19/17 A3015 RMK AO2 SLP198 T01940167
KFIG 250254Z AUTO 34003KT 10SM CLR 19/17 A3015 RMK AO2 SLP202 T01940167 58001
KFIG 250154Z AUTO 00000KT 10SM CLR 21/17 A3016 RMK AO2 SLP205 T02110167
KFIG 250054Z AUTO 00000KT 10SM CLR 23/16 A3016 RMK AO2 SLP206 T02330156
KFIG 242354Z AUTO 23004KT 10SM CLR 24/16 A3016 RMK AO2 SLP205 T02440161 10306 20244 55005
KFIG 242254Z AUTO 23006KT 10SM CLR 27/17 A3015 RMK AO2 SLP203 T02720167
KFIG 242154Z AUTO 23009KT 10SM CLR 29/17 A3016 RMK AO2 SLP205 T02890172
KFIG 242054Z AUTO 20009KT 10SM CLR 29/18 A3017 RMK AO2 SLP209 T02890178 56015
KFIG 241954Z AUTO 23009KT 10SM CLR 29/16 A3019 RMK AO2 SLP213 T02940161
KFIG 241854Z AUTO 22007G18KT 180V260 10SM FEW060 29/16 A3020 RMK AO2 SLP218 T02940161
KFIG 241754Z AUTO 23007G16KT 10SM FEW050 29/16 A3022 RMK AO2 SLP224 T02940161 10300 20139 57023
KFIG 241654Z AUTO 22008KT 10SM SCT047 BKN055 27/17 A3024 RMK AO2 SLP234 T02670172
KFIG 241554Z AUTO 23004KT 10SM CLR 27/18 A3026 RMK AO2 SLP239 T02670183
KFIG 241454Z AUTO 00000KT 10SM CLR 23/17 A3029 RMK AO2 SLP249 T02330172 58009
KFIG 241354Z AUTO VRB03KT 10SM CLR 20/17 A3031 RMK AO2 SLP257 T02000167
KFIG 241254Z AUTO 00000KT 10SM CLR 16/15 A3032 RMK AO2 SLP263 T01610150
KFIG 241154Z AUTO 03003KT 6SM BR CLR 14/14 A3032 RMK AO2 SLP261 T01390139 10139 20117 53007
KFIG 241054Z AUTO 00000KT 4SM BR FEW002 12/12 A3031 RMK AO2 SLP258 T01170117
KFIG 241039Z AUTO 02004KT 4SM BR FEW002 12/12 A3031 RMK AO2 T01170117
KFIG 240954Z AUTO 00000KT 4SM BR CLR 12/12 A3029 RMK AO2 SLP252 T01170117
KFIG 240854Z AUTO 01004KT 6SM BR CLR 12/12 A3030 RMK AO2 SLP253 T01220122 55001
KFIG 240754Z AUTO 02005KT 7SM CLR 13/13 A3029 RMK AO2 SLP251 T01280128
KFIG 240654Z AUTO 36004KT 9SM CLR 13/13 A3029 RMK AO2 SLP249 T01330133
KFIG 240635Z AUTO 00000KT 4SM BR FEW003 13/13 A3029 RMK AO2 T01330133
KFIG 240632Z AUTO 34004KT 1 3/4SM BR FEW003 13/13 A3029 RMK AO2 T01330133
KFIG 240625Z AUTO 35005KT 2SM BR FEW003 13/13 A3029 RMK AO2 T01330133